• Join FlightAware (Why Join?)
  • Login
  • US Flag 
06:17AM EDT


 

Airport Tracker/Info


-or-


 

Live Flight TrackerFlight Track Log ✈ KFS724 ✈ 24-Apr-2013 ✈ KATL - KTUS

Flight Track Log - Related Links

Times and Time Zones

All times are in EDT time to prevent confusion due to time zone crossing. See the KFS724 flight status page for this flight to view local times or setup timezone preferences in your user account.

Time Position Orientation Groundspeed Altitude Reporting Facility
EDT Latitude Longitude Course Direction KTS MPH feet Rate Location/Type
01:56AM 33.6500 -84.3833 51° Northeast 167 192 2,200  Level Atlanta TRACON
01:57AM 33.6833 -84.3333 51° Northeast 229 264 3,900 1,920 Climbing Atlanta TRACON
01:58AM 33.7167 -84.2667 59° Northeast 273 314 6,100 2,400 Climbing Atlanta TRACON
01:59AM 33.7833 -84.3000 337° Northwest 276 318 8,800 2,160 Climbing Atlanta TRACON
02:00AM 33.7833 -84.3833 270° West 291 335 10,500 1,560 Climbing Atlanta TRACON
02:01AM 33.7667 -84.5000 260° West 347 399 12,000 1,680 Climbing Atlanta TRACON
02:02AM 33.7667 -84.6167 270° West 359 413 13,900 1,140 Climbing Atlanta TRACON
02:04AM 33.7431 -84.9106 265° West 398 458 15,900 1,500 Climbing Atlanta Center
02:05AM 33.7381 -85.0456 267° West 412 474 19,000 2,520 Climbing Atlanta Center
02:06AM 33.7369 -85.1778 269° West 399 459 21,000 1,800 Climbing Atlanta Center
02:07AM 33.7333 -85.3153 268° West 404 465 22,700 1,740 Climbing Atlanta Center
02:08AM 33.7297 -85.4475 268° West 404 465 24,500 1,500 Climbing Atlanta Center
02:09AM 33.7242 -85.5800 267° West 404 465 25,700 900 Climbing Atlanta Center
02:10AM 33.7203 -85.7022 268° West 404 465 26,400 900 Climbing Atlanta Center
02:11AM 33.7144 -85.8369 267° West 404 465 27,600 1,200 Climbing Atlanta Center
02:12AM 33.7081 -85.9717 267° West 404 465 28,800 1,080 Climbing Atlanta Center
02:13AM 33.7039 -86.1114 268° West 404 465 29,800 960 Climbing Atlanta Center
02:14AM 33.6972 -86.2461 267° West 404 465 30,800 960 Climbing Atlanta Center
02:15AM 33.6906 -86.3831 267° West 409 471 31,800 1,080 Climbing Atlanta Center
02:16AM 33.6858 -86.5153 268° West 409 471 33,000 1,080 Climbing Atlanta Center
02:17AM 33.6811 -86.6450 268° West 402 463 34,000 480 Climbing Atlanta Center
02:18AM 33.6761 -86.7772 267° West 402 463 34,000  Level Atlanta Center
02:19AM 33.6689 -86.9092 266° West 402 463 34,000  Level Atlanta Center
02:20AM 33.6556 -87.0361 263° West 402 463 34,000  Level Atlanta Center
02:21AM 33.6397 -87.1653 262° West 402 463 34,000  Level Atlanta Center
02:24AM 33.6050 -87.4814 263° West 385 443 34,000  Level Memphis Center
02:25AM 33.5892 -87.6042 261° West 385 443 34,000  Level Memphis Center
02:26AM 33.5772 -87.7292 263° West 385 443 34,000  Level Memphis Center
02:27AM 33.5631 -87.8519 262° West 385 443 34,000  Level Memphis Center
02:28AM 33.5486 -87.9744 262° West 385 443 34,000  Level Memphis Center
02:29AM 33.5344 -88.0994 262° West 385 443 34,000  Level Memphis Center
02:30AM 33.5222 -88.2392 264° West 385 443 34,000  Level Memphis Center
02:31AM 33.5075 -88.3667 262° West 390 449 34,000  Level Memphis Center
02:32AM 33.4908 -88.4917 261° West 390 449 34,000  Level Memphis Center
02:33AM 33.4781 -88.6214 263° West 390 449 34,000  Level Memphis Center
02:34AM 33.4608 -88.7461 261° West 390 449 34,000  Level Memphis Center
02:35AM 33.4458 -88.8633 261° West 390 449 34,000  Level Memphis Center
02:36AM 33.4325 -88.9881 263° West 395 455 34,000  Level Memphis Center
02:37AM 33.4172 -89.1178 262° West 390 449 34,000  Level Memphis Center
02:38AM 33.4039 -89.2450 263° West 390 449 34,000  Level Memphis Center
02:39AM 33.3881 -89.3719 262° West 390 449 34,000  Level Memphis Center
02:40AM 33.3725 -89.4992 262° West 390 449 34,000  Level Memphis Center
02:41AM 33.3567 -89.6261 262° West 390 449 34,000  Level Memphis Center
02:42AM 33.3406 -89.7556 262° West 390 449 34,000  Level Memphis Center
02:43AM 33.3244 -89.8825 261° West 390 449 34,000  Level Memphis Center
02:44AM 33.3103 -90.0117 263° West 390 449 34,000  Level Memphis Center
02:45AM 33.2917 -90.1533 261° West 390 449 34,000  Level Memphis Center
02:46AM 33.2753 -90.2803 261° West 390 449 34,000  Level Memphis Center
02:47AM 33.2586 -90.4044 261° West 390 449 34,000  Level Memphis Center
02:48AM 33.2397 -90.5286 260° West 390 449 34,000  Level Memphis Center
02:49AM 33.2269 -90.6553 263° West 390 449 34,000  Level Memphis Center
02:50AM 33.2097 -90.7769 260° West 390 449 34,000  Level Memphis Center
02:51AM 33.1947 -90.8983 262° West 390 449 34,000  Level Memphis Center
02:52AM 33.1775 -91.0200 260° West 385 443 34,000  Level Memphis Center
02:53AM 33.1600 -91.1464 261° West 385 443 34,000  Level Memphis Center
02:54AM 33.1406 -91.2678 259° West 385 443 34,000  Level Memphis Center
02:56AM 33.1108 -91.5261 262° West 385 443 34,000  Level Fort Worth Center
02:57AM 33.0936 -91.6464 260° West 385 443 34,000  Level Fort Worth Center
02:58AM 33.0783 -91.7739 262° West 380 437 34,000  Level Fort Worth Center
02:59AM 33.0664 -91.8786 262° West 374 430 34,000  Level Fort Worth Center
03:00AM 33.0508 -91.9986 261° West 369 425 34,000  Level Fort Worth Center
03:01AM 33.0286 -92.1189 258° West 374 430 34,000  Level Fort Worth Center
03:02AM 33.0128 -92.2386 261° West 374 430 34,000  Level Fort Worth Center
03:03AM 32.9969 -92.3583 261° West 374 430 34,000  Level Fort Worth Center
03:04AM 32.9767 -92.4783 259° West 374 430 34,000  Level Fort Worth Center
03:05AM 32.9583 -92.5981 260° West 374 430 34,000  Level Fort Worth Center
03:06AM 32.9419 -92.7178 261° West 374 430 34,000  Level Fort Worth Center
03:07AM 32.9233 -92.8375 260° West 374 430 34,000  Level Fort Worth Center
03:08AM 32.9047 -92.9572 260° West 374 430 34,000  Level Fort Worth Center
03:09AM 32.9028 -93.0786 269° West 374 430 34,000  Level Fort Worth Center
03:10AM 32.8967 -93.2100 267° West 374 430 34,000  Level Fort Worth Center
03:11AM 32.8906 -93.3339 267° West 369 425 34,000  Level Fort Worth Center
03:12AM 32.8858 -93.4553 267° West 369 425 34,000  Level Fort Worth Center
03:13AM 32.8794 -93.5794 267° West 369 425 34,000  Level Fort Worth Center
03:14AM 32.8767 -93.7006 268° West 369 425 34,000  Level Fort Worth Center
03:15AM 32.8697 -93.8222 266° West 369 425 34,000  Level Fort Worth Center
03:16AM 32.8650 -93.9461 267° West 369 425 34,000  Level Fort Worth Center
03:17AM 32.8600 -94.0675 267° West 369 425 34,000  Level Fort Worth Center
03:18AM 32.8525 -94.1864 266° West 369 425 34,000  Level Fort Worth Center
03:19AM 32.8472 -94.3078 267° West 369 425 34,000  Level Fort Worth Center
03:20AM 32.8439 -94.4264 268° West 369 425 34,000  Level Fort Worth Center
03:21AM 32.8383 -94.5478 267° West 369 425 34,000  Level Fort Worth Center
03:22AM 32.8494 -94.6686 276° West 369 425 34,000  Level Fort Worth Center
03:23AM 32.8686 -94.7867 281° West 364 419 34,000  Level Fort Worth Center
03:24AM 32.8836 -94.9075 278° West 369 425 34,000  Level Fort Worth Center
03:25AM 32.9089 -95.0281 284° West 369 425 34,000  Level Fort Worth Center
03:26AM 32.9444 -95.1458 290° West 369 425 34,000 300 Level Fort Worth Center
03:27AM 32.9692 -95.2394 287° West 374 430 34,700 900 Climbing Fort Worth Center
03:28AM 33.0089 -95.3672 290° West 381 438 35,900 600 Climbing Fort Worth Center
03:29AM 33.0294 -95.4833 282° West 374 430 36,000  Climbing Fort Worth Center
03:30AM 33.0397 -95.6044 276° West 368 423 36,000  Level Fort Worth Center
03:31AM 33.0225 -95.7211 260° West 363 418 36,000  Level Fort Worth Center
03:32AM 33.0094 -95.8428 263° West 368 423 36,000  Level Fort Worth Center
03:33AM 32.9983 -95.9544 263° West 363 418 36,000  Level Fort Worth Center
03:34AM 32.9828 -96.0736 261° West 363 418 36,000  Level Fort Worth Center
03:35AM 32.9694 -96.1950 263° West 368 423 36,000  Level Fort Worth Center
03:36AM 32.9539 -96.3242 262° West 368 423 36,000  Level Fort Worth Center
03:37AM 32.9403 -96.4381 262° West 368 423 36,000  Level Fort Worth Center
03:38AM 32.9244 -96.5597 261° West 368 423 36,000  Level Fort Worth Center
03:39AM 32.9106 -96.6761 262° West 368 423 36,000  Level Fort Worth Center
03:40AM 32.8967 -96.7950 262° West 374 430 36,000  Level Fort Worth Center
03:41AM 32.8825 -96.9161 262° West 374 430 36,000  Level Fort Worth Center
03:42AM 32.8683 -97.0250 261° West 374 430 36,000  Level Fort Worth Center
03:43AM 32.8519 -97.1539 261° West 369 425 36,000  Level Fort Worth Center
03:44AM 32.8375 -97.2650 261° West 374 430 36,000  Level Fort Worth Center
03:45AM 32.8186 -97.3986 260° West 379 436 36,000  Level Fort Worth Center
03:46AM 32.8061 -97.5147 263° West 367 422 36,000  Level Fort Worth Center
03:47AM 32.7914 -97.6333 262° West 367 422 36,000  Level Fort Worth Center
03:48AM 32.7764 -97.7544 262° West 367 422 36,000  Level Fort Worth Center
03:49AM 32.7614 -97.8728 261° West 367 422 36,000  Level Fort Worth Center
03:50AM 32.7444 -97.9939 261° West 367 422 36,000  Level Fort Worth Center
03:51AM 32.7292 -98.1147 261° West 367 422 36,000  Level Fort Worth Center
03:52AM 32.7136 -98.2356 261° West 372 428 36,000  Level Fort Worth Center
03:53AM 32.6983 -98.3417 260° West 372 428 36,000  Level Fort Worth Center
03:54AM 32.6786 -98.4722 260° West 372 428 36,000  Level Fort Worth Center
03:55AM 32.6628 -98.5906 261° West 366 421 36,000  Level Fort Worth Center
03:56AM 32.6469 -98.7111 261° West 372 428 36,000  Level Fort Worth Center
03:57AM 32.6269 -98.8292 259° West 372 428 36,000  Level Fort Worth Center
03:58AM 32.6089 -98.9475 260° West 372 428 36,000  Level Fort Worth Center
03:59AM 32.5928 -99.0681 261° West 372 428 36,000  Level Fort Worth Center
04:00AM 32.5703 -99.1883 258° West 372 428 36,000  Level Fort Worth Center
04:01AM 32.5539 -99.3064 261° West 372 428 36,000  Level Fort Worth Center
04:02AM 32.5478 -99.4244 267° West 372 428 36,000  Level Fort Worth Center
04:03AM 32.5500 -99.5503 271° West 372 428 36,000  Level Fort Worth Center
04:04AM 32.5500 -99.6711 270° West 367 422 36,000  Level Fort Worth Center
04:05AM 32.5497 -99.7942 270° West 367 422 36,000  Level Fort Worth Center
04:06AM 32.5494 -99.9200 270° West 377 434 36,000  Level Fort Worth Center
04:07AM 32.5514 -100.0333 271° West 383 441 36,000  Level Fort Worth Center
04:08AM 32.5528 -100.1567 271° West 383 441 36,000  Level Fort Worth Center
04:09AM 32.5542 -100.2797 271° West 383 441 36,000  Level Fort Worth Center
04:10AM 32.5533 -100.4031 270° West 383 441 36,000  Level Fort Worth Center
04:11AM 32.5547 -100.5239 271° West 383 441 36,000  Level Fort Worth Center
04:12AM 32.5536 -100.6519 269° West 383 441 36,000  Level Fort Worth Center
04:13AM 32.5544 -100.7753 270° West 383 441 36,000  Level Fort Worth Center
04:14AM 32.5533 -100.8958 269° West 378 435 36,000  Level Fort Worth Center
04:15AM 32.5539 -101.0217 270° West 378 435 36,000  Level Fort Worth Center
04:16AM 32.5544 -101.1472 270° West 384 442 36,000  Level Fort Worth Center
04:17AM 32.5506 -101.2703 268° West 384 442 36,000  Level Fort Worth Center
04:18AM 32.5489 -101.3936 269° West 384 442 36,000  Level Fort Worth Center
04:19AM 32.5511 -101.5169 271° West 384 442 36,000  Level Fort Worth Center
04:20AM 32.5492 -101.6425 269° West 384 442 36,000  Level Fort Worth Center
04:21AM 32.5492 -101.7656 270° West 384 442 36,000  Level Fort Worth Center
04:22AM 32.5469 -101.8886 269° West 384 442 36,000  Level Fort Worth Center
04:23AM 32.5444 -102.0119 269° West 384 442 36,000  Level Fort Worth Center
04:24AM 32.5442 -102.1325 270° West 384 442 36,000  Level Fort Worth Center
04:25AM 32.5433 -102.2631 270° West 384 442 36,000  Level Fort Worth Center
04:26AM 32.5428 -102.3814 270° West 384 442 36,000  Level Fort Worth Center
04:27AM 32.5378 -102.5092 267° West 384 442 36,000  Level Fort Worth Center
04:28AM 32.5364 -102.6422 269° West 384 442 36,000  Level Fort Worth Center
04:29AM 32.5356 -102.7603 270° West 379 436 36,000  Level Fort Worth Center
04:31AM 32.5289 -102.9922 268° West 369 425 36,000  Level Albuquerque Center
04:32AM 32.5247 -103.1378 268° West 368 423 36,000  Level Albuquerque Center
04:33AM 32.5231 -103.2589 269° West 369 425 36,000  Level Albuquerque Center
04:34AM 32.5194 -103.3803 268° West 369 425 36,000  Level Albuquerque Center
04:35AM 32.5161 -103.5017 268° West 370 426 36,000  Level Albuquerque Center
04:36AM 32.5133 -103.6233 268° West 371 427 36,000  Level Albuquerque Center
04:37AM 32.5092 -103.7467 268° West 372 428 36,000  Level Albuquerque Center
04:38AM 32.5067 -103.8678 269° West 370 426 36,000  Level Albuquerque Center
04:39AM 32.5028 -103.9908 268° West 373 429 36,000  Level Albuquerque Center
04:40AM 32.5014 -104.1189 269° West 373 429 36,000  Level Albuquerque Center
04:41AM 32.4969 -104.2439 268° West 378 435 36,000  Level Albuquerque Center
04:42AM 32.4931 -104.3681 268° West 379 436 36,000  Level Albuquerque Center
04:43AM 32.4894 -104.4942 268° West 382 440 36,000  Level Albuquerque Center
04:44AM 32.4847 -104.6197 267° West 382 440 36,000  Level Albuquerque Center
04:45AM 32.4797 -104.7411 267° West 374 430 36,000  Level Albuquerque Center
04:46AM 32.4747 -104.8658 267° West 377 434 36,000  Level Albuquerque Center
04:47AM 32.4714 -104.9903 268° West 383 441 36,000  Level Albuquerque Center
04:48AM 32.4675 -105.1197 268° West 389 448 36,000  Level Albuquerque Center
04:49AM 32.4625 -105.2436 267° West 382 440 36,000  Level Albuquerque Center
04:50AM 32.4572 -105.3689 267° West 382 440 36,000  Level Albuquerque Center
04:51AM 32.4519 -105.4958 267° West 385 443 36,000  Level Albuquerque Center
04:52AM 32.4469 -105.6222 267° West 386 444 36,000  Level Albuquerque Center
04:53AM 32.4417 -105.7483 267° West 386 444 36,000  Level Albuquerque Center
04:54AM 32.4364 -105.8706 267° West 390 449 36,000  Level Albuquerque Center
04:55AM 32.4306 -106.0028 267° West 386 444 36,000  Level Albuquerque Center
04:56AM 32.4253 -106.1289 267° West 387 445 36,000 -60 Level Albuquerque Center
04:57AM 32.4194 -106.2522 267° West 391 450 35,900  Descending Albuquerque Center
04:58AM 32.4139 -106.3808 267° West 392 451 36,000  Climbing Albuquerque Center
04:59AM 32.4078 -106.5061 267° West 384 442 36,000  Level Albuquerque Center
05:00AM 32.4019 -106.6319 267° West 384 442 36,000  Level Albuquerque Center
05:01AM 32.3956 -106.7550 267° West 376 433 36,000  Level Albuquerque Center
05:02AM 32.3881 -106.8881 266° West 370 426 36,000  Level Albuquerque Center
05:03AM 32.3842 -107.0086 268° West 367 422 36,000  Level Albuquerque Center
05:04AM 32.3775 -107.1292 266° West 368 423 36,000  Level Albuquerque Center
05:05AM 32.3725 -107.2294 267° West 372 428 36,000  Level Albuquerque Center
05:06AM 32.3619 -107.3744 265° West 373 429 36,000  Level Albuquerque Center
05:07AM 32.3556 -107.4939 266° West 369 425 36,000  Level Albuquerque Center
05:08AM 32.3500 -107.6092 267° West 365 420 36,000  Level Albuquerque Center
05:09AM 32.3428 -107.7294 266° West 365 420 36,000  Level Albuquerque Center
05:10AM 32.3353 -107.8494 266° West 366 421 36,000  Level Albuquerque Center
05:11AM 32.3275 -107.9689 266° West 365 420 36,000  Level Albuquerque Center
05:12AM 32.3222 -108.0881 267° West 365 420 36,000  Level Albuquerque Center
05:13AM 32.3147 -108.2069 266° West 365 420 36,000  Level Albuquerque Center
05:14AM 32.3072 -108.3272 266° West 365 420 36,000  Level Albuquerque Center
05:15AM 32.2997 -108.4464 266° West 366 421 36,000  Level Albuquerque Center
05:16AM 32.2925 -108.5636 266° West 367 422 36,000  Level Albuquerque Center
05:17AM 32.2842 -108.6831 265° West 367 422 36,000  Level Albuquerque Center
05:18AM 32.2761 -108.8017 265° West 366 421 36,000  Level Albuquerque Center
05:19AM 32.2681 -108.9217 265° West 367 422 36,000 -240 Level Albuquerque Center
05:20AM 32.2600 -109.0414 265° West 368 423 35,600 -1,260 Descending Albuquerque Center
05:21AM 32.2511 -109.1703 265° West 386 444 33,500 -2,040 Descending Albuquerque Center
05:22AM 32.2411 -109.3103 265° West 421 484 31,600 -2,340 Descending Albuquerque Center
05:23AM 32.2311 -109.4489 265° West 427 491 28,900 -2,940 Descending Albuquerque Center
05:24AM 32.2214 -109.5797 265° West 411 473 25,700 -2,760 Descending Albuquerque Center
05:25AM 32.2111 -109.7131 265° West 410 472 23,400 -2,100 Descending Albuquerque Center
05:26AM 32.2003 -109.8503 265° West 420 483 21,500 -2,100 Descending Albuquerque Center
05:27AM 32.1908 -109.9872 265° West 421 484 19,300 -2,340 Descending Albuquerque Center
05:28AM 32.1808 -110.1297 265° West 416 479 17,100 -2,460 Descending Albuquerque Center
05:29AM 32.1711 -110.2469 264° West 385 443 14,400 -2,280 Descending Albuquerque Center
05:30AM 32.1636 -110.3211 263° West 359 413 13,500 -1,800 Descending Albuquerque Center
05:30AM 32.1625 -110.3750 269° West 350 403 12,600 -1,920 Descending Albuquerque Center
05:31AM 32.1575 -110.4289 264° West 336 387 11,600 -1,500 Descending Albuquerque Center
05:31AM 32.1639 -110.4797 278° West 328 377 11,100 -600 Descending Albuquerque Center
05:32AM 32.1703 -110.5361 278° West 339 390 11,000 -120 Descending Albuquerque Center
05:32AM 32.1797 -110.5878 282° West 334 384 11,000 -480 Level Albuquerque Center
05:33AM 32.1989 -110.6708 285° West 299 344 10,300 -1,320 Descending Albuquerque Center
05:34AM 32.2181 -110.7617 284° West 281 323 8,400 -1,740 Descending Albuquerque Center
05:35AM 32.2286 -110.8467 278° West 269 310 6,900 -1,440 Descending Albuquerque Center
05:36AM 32.2367 -110.9300 277° West 263 303 5,600 -1,080 Descending Albuquerque Center
05:37AM 32.2100 -110.9842 240° Southwest 224 258 4,800 -900 Descending Albuquerque Center
05:38AM 32.1847 -111.0008 209° Southwest 180 207 4,200 -840 Descending Albuquerque Center
05:38AM 32.1736 -111.0028 188° South 203 234 4,000 -1,020 Descending Albuquerque Center
05:39AM 32.1483 -110.9781 140° Southeast 149 171 3,200 -1,440 Descending Albuquerque Center
05:41AM 32.1161 -110.9410 157° South  Level Estimated